createdAt,value
2023-10-02T00:01:19.716Z,12.83
2023-10-02T00:06:25.141Z,11.81
2023-10-02T00:11:43.950Z,12.82
2023-10-02T00:17:02.714Z,13.40
2023-10-02T00:22:11.957Z,13.61
2023-10-02T00:27:15.619Z,13.04
2023-10-02T00:32:22.180Z,13.69
2023-10-02T00:37:46.639Z,12.96
2023-10-02T00:42:51.664Z,13.81
2023-10-02T00:47:55.229Z,13.71
2023-10-02T00:53:05.671Z,13.90
2023-10-02T00:58:10.755Z,12.87
2023-10-02T01:03:18.751Z,13.20
2023-10-02T01:08:27.632Z,13.16
2023-10-02T01:13:34.705Z,13.68
2023-10-02T01:18:39.288Z,11.57
2023-10-02T01:24:09.311Z,13.55
2023-10-02T01:29:16.077Z,13.24
2023-10-02T01:34:42.118Z,13.46
2023-10-02T01:39:45.655Z,13.30
2023-10-02T01:44:57.133Z,12.61
2023-10-02T01:50:02.363Z,11.75
2023-10-02T01:55:06.715Z,12.67
2023-10-02T02:00:15.933Z,12.05
2023-10-02T02:05:19.621Z,12.23
2023-10-02T02:10:24.307Z,12.00
2023-10-02T02:15:27.830Z,12.77
2023-10-02T02:20:46.206Z,12.46
2023-10-02T02:25:49.585Z,12.14
2023-10-02T02:30:53.032Z,12.04
2023-10-02T02:36:07.769Z,11.75
2023-10-02T02:41:11.188Z,12.07
2023-10-02T02:46:19.215Z,12.54
2023-10-02T02:51:25.669Z,11.62
2023-10-02T02:56:30.152Z,11.01
2023-10-02T03:01:34.429Z,10.95
2023-10-02T03:06:37.846Z,11.48
2023-10-02T03:11:42.190Z,12.17
2023-10-02T03:16:48.731Z,12.76
2023-10-02T03:21:56.866Z,12.56
2023-10-02T03:27:02.392Z,10.91
2023-10-02T03:32:07.414Z,12.35
2023-10-02T03:37:15.623Z,11.91
2023-10-02T03:42:24.482Z,12.34
2023-10-02T03:47:35.934Z,12.58
2023-10-02T03:52:43.213Z,12.36
2023-10-02T03:57:51.592Z,12.29
2023-10-02T04:02:59.087Z,12.47
2023-10-02T04:08:33.123Z,12.51
2023-10-02T04:13:41.456Z,11.70
2023-10-02T04:18:49.505Z,11.07
2023-10-02T04:23:58.889Z,10.61
2023-10-02T04:29:28.805Z,11.85
2023-10-02T04:34:33.595Z,11.47
2023-10-02T04:39:36.994Z,12.00
2023-10-02T04:44:46.556Z,11.83
2023-10-02T04:50:07.797Z,10.91
2023-10-02T04:55:11.621Z,11.38
2023-10-02T05:00:29.081Z,11.07
2023-10-02T05:05:36.790Z,11.87
2023-10-02T05:10:40.368Z,11.76
2023-10-02T05:16:03.783Z,11.59
2023-10-02T05:21:09.488Z,11.86
2023-10-02T05:26:31.841Z,10.58
2023-10-02T05:31:38.895Z,10.71
2023-10-02T05:37:00.987Z,11.20
2023-10-02T05:42:16.144Z,11.68
2023-10-02T05:47:20.040Z,11.32
2023-10-02T05:52:26.205Z,11.80
2023-10-02T05:57:33.860Z,11.72
2023-10-02T06:02:37.909Z,11.09
2023-10-02T06:07:49.720Z,12.35
2023-10-02T06:13:05.639Z,12.74
2023-10-02T06:18:10.077Z,12.28
2023-10-02T06:23:22.404Z,12.46
2023-10-02T06:28:29.186Z,12.91
2023-10-02T06:33:40.636Z,13.53
2023-10-02T06:38:45.512Z,13.38
2023-10-02T06:43:50.759Z,13.94
2023-10-02T06:48:56.588Z,13.69
2023-10-02T06:54:09.184Z,13.99
2023-10-02T06:59:12.713Z,13.22
2023-10-02T07:04:21.481Z,13.93
2023-10-02T07:09:26.749Z,13.62
2023-10-02T07:14:37.401Z,15.00
2023-10-02T07:19:41.422Z,15.55
2023-10-02T07:24:50.472Z,15.77
2023-10-02T07:30:01.538Z,16.29
2023-10-02T07:35:23.837Z,16.18
2023-10-02T07:40:48.743Z,16.76
2023-10-02T07:46:04.862Z,16.99
2023-10-02T07:51:08.769Z,17.25
2023-10-02T07:56:16.260Z,17.41
2023-10-02T08:01:23.825Z,17.80
2023-10-02T08:06:33.144Z,18.14
2023-10-02T08:11:37.454Z,17.36
2023-10-02T08:17:01.133Z,19.64
2023-10-02T08:22:07.457Z,19.51
2023-10-02T08:27:10.770Z,20.11
2023-10-02T08:32:14.637Z,21.19
2023-10-02T08:37:17.992Z,20.32
2023-10-02T08:42:26.021Z,21.75
2023-10-02T09:38:52.141Z,24.73
2023-10-02T09:50:13.894Z,25.15
2023-10-02T09:55:27.928Z,24.64
2023-10-02T10:39:53.127Z,25.30
2023-10-02T10:54:30.405Z,25.22
2023-10-02T10:59:48.420Z,25.45
2023-10-02T11:09:43.464Z,25.24
2023-10-02T11:14:46.766Z,24.62
2023-10-02T11:19:57.386Z,25.61
2023-10-02T11:25:02.162Z,25.49
2023-10-02T11:30:09.049Z,25.03
2023-10-02T11:35:12.611Z,25.10
2023-10-02T11:40:16.766Z,25.56
2023-10-02T11:45:20.277Z,25.54
2023-10-02T11:50:23.901Z,25.82
2023-10-02T11:55:28.566Z,25.38
2023-10-02T12:00:31.961Z,24.83
2023-10-02T12:05:38.923Z,25.85
2023-10-02T12:10:43.180Z,24.80
2023-10-02T12:15:48.219Z,25.02
2023-10-02T12:20:51.532Z,24.32
2023-10-02T12:25:54.882Z,25.24
2023-10-02T12:30:58.309Z,25.23
2023-10-02T12:36:01.593Z,25.40
2023-10-02T12:41:12.268Z,25.44
2023-10-02T12:46:17.227Z,25.37
2023-10-02T12:51:24.847Z,25.45
2023-10-02T12:56:28.267Z,25.19
2023-10-02T13:01:31.897Z,24.74
2023-10-02T13:06:35.603Z,24.87
2023-10-02T13:11:42.145Z,24.29
2023-10-02T13:16:45.682Z,24.87
2023-10-02T13:21:54.520Z,23.88
2023-10-02T13:26:57.880Z,24.99
2023-10-02T13:32:03.228Z,25.15
2023-10-02T13:37:07.603Z,24.68
2023-10-02T13:42:10.878Z,24.96
2023-10-02T13:47:26.803Z,24.81
2023-10-02T13:52:40.793Z,25.05
2023-10-02T13:57:44.984Z,24.69
2023-10-02T14:02:53.225Z,24.98
2023-10-02T14:07:57.057Z,25.12
2023-10-02T14:13:03.494Z,24.40
2023-10-02T14:18:07.160Z,24.69
2023-10-02T14:23:10.827Z,24.49
2023-10-02T14:28:14.328Z,24.53
2023-10-02T14:33:17.683Z,24.95
2023-10-02T14:38:23.465Z,24.68
2023-10-02T14:43:29.071Z,23.86
2023-10-02T14:53:51.173Z,24.25
2023-10-02T14:58:54.374Z,24.32
2023-10-02T15:03:57.957Z,23.90
2023-10-02T15:09:05.147Z,24.03
2023-10-02T15:14:10.365Z,23.06
2023-10-02T15:19:15.320Z,24.08
2023-10-02T15:24:20.002Z,23.53
2023-10-02T15:29:23.722Z,23.53
2023-10-02T15:34:26.992Z,24.16
2023-10-02T15:39:30.246Z,23.92
2023-10-02T15:44:34.894Z,22.86
2023-10-02T15:49:39.982Z,22.30
2023-10-02T15:54:45.454Z,22.80
2023-10-02T15:59:48.964Z,23.26
2023-10-02T16:04:54.262Z,23.04
2023-10-02T16:09:57.676Z,22.03
2023-10-02T16:15:01.306Z,22.61
2023-10-02T16:20:05.254Z,23.22
2023-10-02T16:25:10.646Z,20.98
2023-10-02T16:30:14.700Z,20.35
2023-10-02T16:35:19.677Z,20.21
2023-10-02T16:40:25.094Z,20.09
2023-10-02T16:45:29.080Z,19.68
2023-10-02T16:50:32.864Z,18.84
2023-10-02T16:55:36.592Z,18.54
2023-10-02T17:00:43.135Z,17.70
2023-10-02T17:05:47.536Z,18.27
2023-10-02T17:10:50.957Z,18.02
2023-10-02T17:15:54.657Z,17.88
2023-10-02T17:20:58.066Z,17.69
2023-10-02T17:26:02.262Z,17.11
2023-10-02T17:31:05.913Z,17.07
2023-10-02T17:36:10.573Z,16.95
2023-10-02T17:41:14.029Z,17.04
2023-10-02T17:46:17.411Z,16.81
2023-10-02T17:51:20.977Z,16.49
2023-10-02T17:56:24.321Z,15.71
2023-10-02T18:01:27.774Z,15.40
2023-10-02T18:06:31.330Z,15.91
2023-10-02T18:11:34.759Z,16.35
2023-10-02T18:16:39.003Z,16.34
2023-10-02T18:21:42.728Z,16.28
2023-10-02T18:26:46.134Z,15.40
2023-10-02T18:31:50.255Z,15.13
2023-10-02T18:36:53.648Z,15.37
2023-10-02T18:41:57.181Z,16.10
2023-10-02T18:47:01.812Z,16.32
2023-10-02T18:52:05.456Z,15.96
2023-10-02T18:57:10.467Z,16.03
2023-10-02T19:02:13.913Z,15.80
2023-10-02T19:07:17.366Z,16.12
2023-10-02T19:12:21.126Z,15.48
2023-10-02T19:17:26.042Z,16.23
2023-10-02T19:22:29.495Z,15.77
2023-10-02T19:27:32.852Z,14.84
2023-10-02T19:32:36.274Z,14.18
2023-10-02T19:37:40.139Z,15.07
2023-10-02T19:42:43.628Z,15.14
2023-10-02T19:47:46.958Z,15.59
2023-10-02T19:52:52.700Z,15.51
2023-10-02T19:57:56.274Z,13.78
2023-10-02T20:02:59.927Z,14.53
2023-10-02T20:08:03.821Z,15.23
2023-10-02T20:13:08.434Z,13.57
2023-10-02T20:18:12.097Z,14.38
2023-10-02T20:23:17.397Z,14.37
2023-10-02T20:28:23.871Z,15.01
2023-10-02T20:33:27.239Z,14.43
2023-10-02T20:38:30.657Z,13.49
2023-10-02T20:43:34.330Z,13.55
2023-10-02T20:48:40.360Z,14.80
2023-10-02T20:53:43.868Z,14.73
2023-10-02T20:58:47.241Z,15.19
2023-10-02T21:03:51.017Z,15.17
2023-10-02T21:08:54.966Z,14.63
2023-10-02T21:13:58.240Z,14.33
2023-10-02T21:19:01.710Z,13.67
2023-10-02T21:24:05.356Z,14.86
2023-10-02T21:29:08.923Z,14.67
2023-10-02T21:34:12.696Z,13.61
2023-10-02T21:39:16.653Z,12.89
2023-10-02T21:44:19.946Z,13.60
2023-10-02T21:49:24.003Z,13.86
2023-10-02T21:54:28.581Z,14.64
2023-10-02T21:59:31.849Z,14.53
2023-10-02T22:04:35.129Z,14.18
2023-10-02T22:09:39.077Z,13.23
2023-10-02T22:14:46.274Z,13.33
2023-10-02T22:19:51.306Z,14.19
2023-10-02T22:24:55.613Z,13.52
2023-10-02T22:29:59.740Z,13.09
2023-10-02T22:35:06.985Z,13.43
2023-10-02T22:40:19.228Z,14.09
2023-10-02T22:45:23.967Z,14.06
2023-10-02T22:50:27.746Z,12.87
2023-10-02T22:55:31.835Z,13.62
2023-10-02T23:00:37.814Z,12.82
2023-10-02T23:05:42.358Z,13.40
2023-10-02T23:10:46.768Z,13.68
2023-10-02T23:15:50.175Z,13.33
2023-10-02T23:20:55.244Z,13.41
2023-10-02T23:26:00.668Z,13.21
2023-10-02T23:31:04.701Z,12.13
2023-10-02T23:36:12.182Z,13.26
2023-10-02T23:41:16.756Z,13.56
2023-10-02T23:46:20.312Z,13.14
2023-10-02T23:51:32.520Z,13.12
2023-10-02T23:56:36.429Z,12.88
